John James Audubon — WDE8037 — position and weather

sailwx.info

Track history (hours):
 
Tides and Currents Weather Stations Pressure Air Temp Water Temp Dewpoint Dewpoint Depression Visibility Wind Speed Wind Dir Waves Ship Positions

John James Audubon

Owner: Statue Cruises, Jersey City, NJ. More information available from US FCC via Universal Licensing System and Coast Guard Vessel Documentation Center.

Last reported at 2017-Jan-09 22:33 UTC. Time now 2017-Jan-18 22:23 UTC.
Position N 40°44' W 074°01'.
Warning: this ship's position is 8 days out of date.

Length 37 m.

Type: Ship. MMSI: 367400770.

Date/timePositionNaut miles runAvg speedWind from/ knotsBaromVisibWave heightAir tempDewpointWater temp
2017-Jan-09 22:33N 40°44' W 074°01'3 3.0
2017-Jan-09 21:33N 40°41' W 074°02'2 2.0
2017-Jan-09 20:33N 40°42' W 074°00'0 0.0
2017-Jan-09 19:33N 40°42' W 074°00'2 1.6
2017-Jan-09 18:33N 40°41' W 074°02'2 1.6
2017-Jan-09 17:33N 40°42' W 074°00'0 0.0
2017-Jan-09 16:33N 40°42' W 074°00'2 1.7
2017-Jan-09 15:33N 40°41' W 074°02'2 1.7
2017-Jan-09 14:33N 40°42' W 074°00'2 0.1
2017-Jan-08 22:26N 40°44' W 074°01'2 2.7
2017-Jan-08 21:33N 40°42' W 074°01'1 1.2
2017-Jan-08 20:33N 40°42' W 074°00'0 0.0
2017-Jan-08 19:33N 40°42' W 074°00'1 1.3
2017-Jan-08 18:33N 40°41' W 074°02'1 1.3
2017-Jan-08 17:33N 40°42' W 074°00'0 0.0
2017-Jan-08 16:33N 40°42' W 074°00'1 1.2
2017-Jan-08 15:33N 40°42' W 074°01'1 0.7
2017-Jan-08 14:33N 40°42' W 074°01'2 1.6
2017-Jan-08 13:33N 40°43' W 074°02'2 0.1
2017-Jan-07 22:29N 40°44' W 074°01'3 3.0
2017-Jan-07 21:33N 40°41' W 074°02'2 1.8
2017-Jan-07 20:33N 40°42' W 074°00'0 0.0
2017-Jan-07 19:33N 40°42' W 074°00'1 1.4
2017-Jan-07 18:33N 40°41' W 074°02'1 1.4
2017-Jan-07 17:33N 40°42' W 074°00'0 0.0
2017-Jan-07 16:33N 40°42' W 074°00'1 1.4
2017-Jan-07 15:34N 40°41' W 074°02'1 1.4
2017-Jan-07 14:33N 40°42' W 074°00'2 0.1
2017-Jan-07 01:16N 40°44' W 074°01'0 0.0
2017-Jan-07 00:33N 40°44' W 074°01'0 0.0
2017-Jan-06 23:33N 40°44' W 074°01'0 0.0
2017-Jan-06 22:33N 40°44' W 074°01'2 2.3
2017-Jan-06 21:33N 40°42' W 074°01'1 1.1
2017-Jan-06 20:33N 40°42' W 074°00'0 0.0
2017-Jan-06 19:33N 40°42' W 074°00'1 1.4
2017-Jan-06 18:33N 40°42' W 074°02'1 1.4
2017-Jan-06 17:33N 40°42' W 074°00'0 0.0
2017-Jan-06 16:33N 40°42' W 074°00'1 1.2
2017-Jan-06 15:34N 40°42' W 074°01'1 1.2
2017-Jan-06 14:33N 40°42' W 074°00'2 1.6
2017-Jan-06 13:33N 40°44' W 074°01'0 0.0
2017-Jan-05 22:31N 40°44' W 074°01'2 1.9
2017-Jan-05 21:34N 40°42' W 074°00'0 0.2
2017-Jan-05 20:33N 40°42' W 074°00'0 0.0
2017-Jan-05 19:33N 40°42' W 074°00'1 1.1
2017-Jan-05 18:34N 40°42' W 074°01'1 1.1
2017-Jan-05 17:34N 40°42' W 074°00'0 0.0
2017-Jan-05 16:34N 40°42' W 074°00'1 0.6
2017-Jan-05 15:34N 40°42' W 074°01'2 1.6
2017-Jan-05 14:34N 40°43' W 074°01'0 0.5
2017-Jan-05 13:34N 40°44' W 074°01'0 0.0
2017-Jan-04 22:34N 40°44' W 074°01'2 1.9
2017-Jan-04 21:33N 40°42' W 074°00'0 0.3
2017-Jan-04 20:33N 40°42' W 074°00'0 0.0
2017-Jan-04 19:33N 40°42' W 074°00'1 1.3
2017-Jan-04 18:34N 40°42' W 074°02'1 1.3
2017-Jan-04 17:33N 40°42' W 074°00'0 0.0
2017-Jan-04 16:33N 40°42' W 074°00'1 1.2
2017-Jan-04 15:33N 40°42' W 074°02'1 1.2
2017-Jan-04 14:33N 40°42' W 074°00'2 0.1
2017-Jan-03 22:19N 40°44' W 074°01'2 2.2
2017-Jan-03 21:34N 40°42' W 073°60'0 0.3
2017-Jan-03 20:33N 40°42' W 074°00'0 0.0
2017-Jan-03 19:34N 40°42' W 074°00'1 0.5
2017-Jan-03 18:34N 40°42' W 074°01'1 0.5
2017-Jan-03 17:33N 40°42' W 074°00'0 0.0
2017-Jan-03 16:33N 40°42' W 074°00'1 1.4
2017-Jan-03 15:33N 40°42' W 074°02'1 1.4
2017-Jan-03 14:33N 40°42' W 074°00'1 0.1
2017-Jan-02 22:33N 40°43' W 074°01'1 1.3
2017-Jan-02 21:33N 40°41' W 074°02'1 1.5
2017-Jan-02 20:33N 40°42' W 074°00'0 0.0
2017-Jan-02 19:33N 40°42' W 074°00'2 1.5
2017-Jan-02 18:33N 40°41' W 074°01'2 1.5
2017-Jan-02 17:33N 40°42' W 074°00'0 0.0
2017-Jan-02 16:33N 40°42' W 074°00'2 1.7
2017-Jan-02 15:33N 40°41' W 074°02'2 1.7
2017-Jan-02 14:33N 40°42' W 074°00'2 1.6
2017-Jan-02 13:33N 40°44' W 074°01'0 0.0
2017-Jan-01 23:33N 40°44' W 074°01'2 2.5
2017-Jan-01 22:33N 40°41' W 074°02'1 1.3
2017-Jan-01 21:33N 40°42' W 074°00'0 0.0
2017-Jan-01 20:33N 40°42' W 074°00'1 1.2
2017-Jan-01 19:33N 40°42' W 074°01'1 1.2
2017-Jan-01 18:33N 40°42' W 074°00'0 0.0
2017-Jan-01 17:33N 40°42' W 074°00'1 1.3
2017-Jan-01 16:33N 40°42' W 074°02'1 1.3
2017-Jan-01 15:33N 40°42' W 074°00'0 0.0
2017-Jan-01 14:33N 40°42' W 074°00'2 1.6
2017-Jan-01 13:33N 40°44' W 074°01'0 0.0
2017-Jan-01 06:33N 40°44' W 074°01'0 0.0
2017-Jan-01 05:34N 40°44' W 074°01'2 2.2
2017-Jan-01 04:34N 40°42' W 074°02'2 1.7
2017-Jan-01 03:34N 40°42' W 073°60'4 3.8
2017-Jan-01 02:33N 40°46' W 074°01'2 2.3
2017-Jan-01 01:34N 40°44' W 074°01'0 0.0
2017-Jan-01 00:33N 40°44' W 074°01'0 0.0
2016-Dec-31 23:34N 40°44' W 074°01'0 0.0
2016-Dec-31 22:33N 40°44' W 074°01'2 1.6
2016-Dec-31 21:33N 40°42' W 074°00'0 0.0
2016-Dec-31 20:33N 40°42' W 074°00'1 1.3
2016-Dec-31 19:33N 40°42' W 074°02'1 1.2
2016-Dec-31 18:33N 40°42' W 074°00'0 0.0
2016-Dec-31 17:33N 40°42' W 074°00'1 1.5
2016-Dec-31 16:33N 40°41' W 074°02'1 1.5
2016-Dec-31 15:33N 40°42' W 074°00'1 1.0
2016-Dec-31 14:33N 40°42' W 074°01'2 2.0
2016-Dec-31 13:33N 40°44' W 074°01'  
Track history (hours):
 
Tides and Currents Weather Stations Pressure Air Temp Water Temp Dewpoint Dewpoint Depression Visibility Wind Speed Wind Dir Waves Ship Positions

John James Audubon

Owner: Statue Cruises, Jersey City, NJ. More information available from US FCC via Universal Licensing System and Coast Guard Vessel Documentation Center.

Last reported at 2017-Jan-09 22:33 UTC. Time now 2017-Jan-18 22:23 UTC.
Position N 40°44' W 074°01'.
Warning: this ship's position is 8 days out of date.

Length 37 m.

Type: Ship. MMSI: 367400770.

Date/timePositionNaut miles runAvg speedWind from/ knotsBaromVisibWave heightAir tempDewpointWater temp
2017-Jan-09 22:33N 40°44' W 074°01'3 3.0
2017-Jan-09 21:33N 40°41' W 074°02'2 2.0
2017-Jan-09 20:33N 40°42' W 074°00'0 0.0
2017-Jan-09 19:33N 40°42' W 074°00'2 1.6
2017-Jan-09 18:33N 40°41' W 074°02'2 1.6
2017-Jan-09 17:33N 40°42' W 074°00'0 0.0
2017-Jan-09 16:33N 40°42' W 074°00'2 1.7
2017-Jan-09 15:33N 40°41' W 074°02'2 1.7
2017-Jan-09 14:33N 40°42' W 074°00'2 0.1
2017-Jan-08 22:26N 40°44' W 074°01'2 2.7
2017-Jan-08 21:33N 40°42' W 074°01'1 1.2
2017-Jan-08 20:33N 40°42' W 074°00'0 0.0
2017-Jan-08 19:33N 40°42' W 074°00'1 1.3
2017-Jan-08 18:33N 40°41' W 074°02'1 1.3
2017-Jan-08 17:33N 40°42' W 074°00'0 0.0
2017-Jan-08 16:33N 40°42' W 074°00'1 1.2
2017-Jan-08 15:33N 40°42' W 074°01'1 0.7
2017-Jan-08 14:33N 40°42' W 074°01'2 1.6
2017-Jan-08 13:33N 40°43' W 074°02'2 0.1
2017-Jan-07 22:29N 40°44' W 074°01'3 3.0
2017-Jan-07 21:33N 40°41' W 074°02'2 1.8
2017-Jan-07 20:33N 40°42' W 074°00'0 0.0
2017-Jan-07 19:33N 40°42' W 074°00'1 1.4
2017-Jan-07 18:33N 40°41' W 074°02'1 1.4
2017-Jan-07 17:33N 40°42' W 074°00'0 0.0
2017-Jan-07 16:33N 40°42' W 074°00'1 1.4
2017-Jan-07 15:34N 40°41' W 074°02'1 1.4
2017-Jan-07 14:33N 40°42' W 074°00'2 0.1
2017-Jan-07 01:16N 40°44' W 074°01'0 0.0
2017-Jan-07 00:33N 40°44' W 074°01'0 0.0
2017-Jan-06 23:33N 40°44' W 074°01'0 0.0
2017-Jan-06 22:33N 40°44' W 074°01'2 2.3
2017-Jan-06 21:33N 40°42' W 074°01'1 1.1
2017-Jan-06 20:33N 40°42' W 074°00'0 0.0
2017-Jan-06 19:33N 40°42' W 074°00'1 1.4
2017-Jan-06 18:33N 40°42' W 074°02'1 1.4
2017-Jan-06 17:33N 40°42' W 074°00'0 0.0
2017-Jan-06 16:33N 40°42' W 074°00'1 1.2
2017-Jan-06 15:34N 40°42' W 074°01'1 1.2
2017-Jan-06 14:33N 40°42' W 074°00'2 1.6
2017-Jan-06 13:33N 40°44' W 074°01'0 0.0
2017-Jan-05 22:31N 40°44' W 074°01'2 1.9
2017-Jan-05 21:34N 40°42' W 074°00'0 0.2
2017-Jan-05 20:33N 40°42' W 074°00'0 0.0
2017-Jan-05 19:33N 40°42' W 074°00'1 1.1
2017-Jan-05 18:34N 40°42' W 074°01'1 1.1
2017-Jan-05 17:34N 40°42' W 074°00'0 0.0
2017-Jan-05 16:34N 40°42' W 074°00'1 0.6
2017-Jan-05 15:34N 40°42' W 074°01'2 1.6
2017-Jan-05 14:34N 40°43' W 074°01'0 0.5
2017-Jan-05 13:34N 40°44' W 074°01'0 0.0
2017-Jan-04 22:34N 40°44' W 074°01'2 1.9
2017-Jan-04 21:33N 40°42' W 074°00'0 0.3
2017-Jan-04 20:33N 40°42' W 074°00'0 0.0
2017-Jan-04 19:33N 40°42' W 074°00'1 1.3
2017-Jan-04 18:34N 40°42' W 074°02'1 1.3
2017-Jan-04 17:33N 40°42' W 074°00'0 0.0
2017-Jan-04 16:33N 40°42' W 074°00'1 1.2
2017-Jan-04 15:33N 40°42' W 074°02'1 1.2
2017-Jan-04 14:33N 40°42' W 074°00'2 0.1
2017-Jan-03 22:19N 40°44' W 074°01'2 2.2
2017-Jan-03 21:34N 40°42' W 073°60'0 0.3
2017-Jan-03 20:33N 40°42' W 074°00'0 0.0
2017-Jan-03 19:34N 40°42' W 074°00'1 0.5
2017-Jan-03 18:34N 40°42' W 074°01'1 0.5
2017-Jan-03 17:33N 40°42' W 074°00'0 0.0
2017-Jan-03 16:33N 40°42' W 074°00'1 1.4
2017-Jan-03 15:33N 40°42' W 074°02'1 1.4
2017-Jan-03 14:33N 40°42' W 074°00'1 0.1
2017-Jan-02 22:33N 40°43' W 074°01'1 1.3
2017-Jan-02 21:33N 40°41' W 074°02'1 1.5
2017-Jan-02 20:33N 40°42' W 074°00'0 0.0
2017-Jan-02 19:33N 40°42' W 074°00'2 1.5
2017-Jan-02 18:33N 40°41' W 074°01'2 1.5
2017-Jan-02 17:33N 40°42' W 074°00'0 0.0
2017-Jan-02 16:33N 40°42' W 074°00'2 1.7
2017-Jan-02 15:33N 40°41' W 074°02'2 1.7
2017-Jan-02 14:33N 40°42' W 074°00'2 1.6
2017-Jan-02 13:33N 40°44' W 074°01'0 0.0
2017-Jan-01 23:33N 40°44' W 074°01'2 2.5
2017-Jan-01 22:33N 40°41' W 074°02'1 1.3
2017-Jan-01 21:33N 40°42' W 074°00'0 0.0
2017-Jan-01 20:33N 40°42' W 074°00'1 1.2
2017-Jan-01 19:33N 40°42' W 074°01'1 1.2
2017-Jan-01 18:33N 40°42' W 074°00'0 0.0
2017-Jan-01 17:33N 40°42' W 074°00'1 1.3
2017-Jan-01 16:33N 40°42' W 074°02'1 1.3
2017-Jan-01 15:33N 40°42' W 074°00'0 0.0
2017-Jan-01 14:33N 40°42' W 074°00'2 1.6
2017-Jan-01 13:33N 40°44' W 074°01'0 0.0
2017-Jan-01 06:33N 40°44' W 074°01'0 0.0
2017-Jan-01 05:34N 40°44' W 074°01'2 2.2
2017-Jan-01 04:34N 40°42' W 074°02'2 1.7
2017-Jan-01 03:34N 40°42' W 073°60'4 3.8
2017-Jan-01 02:33N 40°46' W 074°01'2 2.3
2017-Jan-01 01:34N 40°44' W 074°01'0 0.0
2017-Jan-01 00:33N 40°44' W 074°01'0 0.0
2016-Dec-31 23:34N 40°44' W 074°01'0 0.0
2016-Dec-31 22:33N 40°44' W 074°01'2 1.6
2016-Dec-31 21:33N 40°42' W 074°00'0 0.0
2016-Dec-31 20:33N 40°42' W 074°00'1 1.3
2016-Dec-31 19:33N 40°42' W 074°02'1 1.2
2016-Dec-31 18:33N 40°42' W 074°00'0 0.0
2016-Dec-31 17:33N 40°42' W 074°00'1 1.5
2016-Dec-31 16:33N 40°41' W 074°02'1 1.5
2016-Dec-31 15:33N 40°42' W 074°00'1 1.0
2016-Dec-31 14:33N 40°42' W 074°01'2 2.0
2016-Dec-31 13:33N 40°44' W 074°01'  

Dump ship's entire track history